Startpagina
METAR-TAF:

METAR-TAF

Vliegvelden :

Luchthaven Belgrado Nikola Tesla

Belgrado, Servië

breedte: 44-49N, lengte: 020-17E, hoogte: 96 m

Actueel weer

Dit bericht is 19 minuten geleden gemaakt, om 12:30 UTC
Wind 19 kt uit het zuidoosten
Temperatuur 11°C
Vochtigheid 54%
Druk 1017 hPa
Zicht 10 km of meer
geen wolken onder 1500 m en geen cumulonimbus

METAR: LYBE 221230Z 13019KT CAVOK 11/02 Q1017 NOSIG

Tijdstip: 13:49 (12:49 UTC)

Verwachting

Dit bericht is 1 uur en het 49 minuten geleden gemaakt, om 11:00 UTC
Verwachting geldig van 22 om 12 UTC tot 23 om 12 UTC
Wind 17 kt uit het zuidoosten
Zicht 10 km of meer
geen wolken onder 1500 m en geen cumulonimbus
Tijdelijke
van 22 om 12 UTC tot 23 om 12 UTC
Wind 20 kt uit het oostzuidoosten met uitschieters tot 30 kt

TAF: LYBE 221100Z 2212/2312 13017KT CAVOK TX11/2312Z TN06/2305Z TEMPO 2212/2312 11020G30KT

Waarnemingen en weersverwachtingen van meer dan 4000 vliegvelden (METAR en TAF).

De beschikbare stations zijn de gele en rode punten op de kaart.

Ga met uw muis naar het station om de naam te zien.

Klik dan om waarnemingen en weersverwachtingen te zien.

kaart wijzigen: klik op de groene knoppen met een zwart kruis om in te zoomen, op de groene knop met een streepje om uit te zoomen of op de groene pijlen voor aangrenzende kaarten.


METAR-TAF: